createdAt,value
2017-06-28T14:45:29.664Z,28.22
2017-06-28T14:46:28.110Z,28.2
2017-06-28T14:47:27.798Z,28.25
2017-06-28T14:48:28.119Z,28.22
2017-06-28T14:49:28.119Z,28.19
2017-06-28T14:50:29.725Z,28.26
2017-06-28T14:51:27.811Z,28.17
2017-06-28T14:52:27.838Z,28.25
2017-06-28T14:53:28.142Z,28.22
2017-06-28T14:54:28.185Z,28.32
2017-06-28T14:55:28.159Z,28.39
2017-06-28T14:56:28.162Z,28.29
2017-06-28T14:57:28.163Z,28.41
2017-06-28T14:58:27.856Z,28.32
2017-06-28T14:59:28.175Z,28.27
2017-06-28T15:00:28.685Z,28.17
2017-06-28T15:01:27.557Z,28.3
2017-06-28T15:02:28.196Z,28.37
2017-06-28T15:03:27.884Z,28.35
2017-06-28T15:04:27.898Z,28.48
2017-06-28T15:05:27.901Z,28.47
2017-06-28T15:06:28.225Z,28.64
2017-06-28T15:07:28.227Z,28.57
2017-06-28T15:08:28.247Z,28.54
2017-06-28T15:09:28.242Z,28.63
2017-06-28T15:10:28.253Z,28.7
2017-06-28T15:11:28.256Z,28.76
2017-06-28T15:12:27.949Z,28.78
2017-06-28T15:13:28.287Z,28.88
2017-06-28T15:14:27.967Z,28.6
2017-06-28T15:15:27.677Z,28.45
2017-06-28T15:16:28.290Z,28.41
2017-06-28T15:17:28.301Z,28.3
2017-06-28T15:18:28.023Z,28.22
2017-06-28T15:19:28.012Z,28.08
2017-06-28T15:20:28.319Z,28.05
2017-06-28T15:21:28.338Z,28.19
2017-06-28T15:22:28.364Z,28.26
2017-06-28T15:23:28.337Z,28.27
2017-06-28T15:24:28.469Z,28.37
2017-06-28T15:25:28.351Z,28.44
2017-06-28T15:26:28.392Z,28.48
2017-06-28T15:27:28.366Z,28.52
2017-06-28T15:28:28.383Z,28.62
2017-06-28T15:29:28.068Z,28.66
2017-06-28T15:30:28.389Z,28.74
2017-06-28T15:31:28.489Z,28.75
2017-06-28T15:32:28.397Z,28.72
2017-06-28T15:33:28.404Z,28.62
2017-06-28T15:34:28.413Z,28.56
2017-06-28T15:35:27.802Z,28.62
2017-06-28T15:36:28.428Z,28.67
2017-06-28T15:37:28.442Z,28.76
2017-06-28T15:38:28.444Z,28.72
2017-06-28T15:39:28.463Z,28.88
2017-06-28T15:40:27.838Z,28.91
2017-06-28T15:41:28.157Z,28.98
2017-06-28T15:42:28.482Z,28.98
2017-06-28T15:43:27.855Z,28.97
2017-06-28T15:44:28.555Z,28.96
2017-06-28T15:45:28.174Z,28.96
2017-06-28T15:46:29.480Z,29.08
2017-06-28T15:47:28.499Z,29.13
2017-06-28T15:48:28.215Z,29.26
2017-06-28T15:49:28.212Z,29.2
2017-06-28T15:50:28.236Z,29.32
2017-06-28T15:51:28.628Z,29.31
2017-06-28T15:52:28.237Z,29.29
2017-06-28T15:53:28.544Z,29.13
2017-06-28T15:54:28.238Z,29.01
2017-06-28T15:55:28.568Z,28.96
2017-06-28T15:56:28.248Z,29.01
2017-06-28T15:57:28.255Z,29.02
2017-06-28T15:58:28.028Z,28.91
2017-06-28T15:59:28.584Z,28.86
2017-06-28T16:00:28.587Z,28.86
2017-06-28T16:01:27.970Z,28.89
2017-06-28T16:02:28.607Z,29.04
2017-06-28T16:03:28.612Z,29.04
2017-06-28T16:04:28.630Z,29.05
2017-06-28T16:05:28.311Z,29.05
2017-06-28T16:06:28.639Z,29.02
2017-06-28T16:07:28.640Z,28.97
2017-06-28T16:08:28.652Z,29.19
2017-06-28T16:09:28.344Z,29.14
2017-06-28T16:10:28.348Z,29.17
2017-06-28T16:11:28.355Z,29.13
2017-06-28T16:12:28.367Z,29.02
2017-06-28T16:13:28.370Z,29.14
2017-06-28T16:14:28.383Z,29.05
2017-06-28T16:15:28.383Z,28.96
2017-06-28T16:16:28.396Z,28.97
2017-06-28T16:17:28.711Z,29.02
2017-06-28T16:18:28.730Z,28.96
2017-06-28T16:19:28.732Z,28.97
2017-06-28T16:20:28.765Z,29.01
2017-06-28T16:21:28.429Z,29.04
2017-06-28T16:22:28.446Z,28.98
2017-06-28T16:23:28.754Z,29.05
2017-06-28T16:24:28.763Z,29.02
2017-06-28T16:25:28.464Z,28.96
2017-06-28T16:26:28.783Z,28.86
2017-06-28T16:27:28.808Z,28.89
2017-06-28T16:28:28.789Z,28.98
2017-06-28T16:29:28.485Z,28.96
2017-06-28T16:30:28.806Z,28.94
2017-06-28T16:31:28.840Z,28.91
2017-06-28T16:32:28.845Z,28.79
2017-06-28T16:33:28.883Z,28.74
2017-06-28T16:34:28.831Z,28.7
2017-06-28T16:35:28.558Z,28.78
2017-06-28T16:36:28.593Z,28.76
2017-06-28T16:37:28.547Z,28.72
2017-06-28T16:38:28.884Z,28.63
2017-06-28T16:39:28.602Z,28.62
2017-06-28T16:40:28.886Z,28.57
2017-06-28T16:41:28.880Z,28.41
2017-06-28T16:42:28.593Z,28.42
2017-06-28T16:43:28.960Z,28.39
2017-06-28T16:44:28.313Z,28.41
2017-06-28T16:45:28.928Z,28.39
2017-06-28T16:46:28.947Z,28.45
2017-06-28T16:47:28.629Z,28.44
2017-06-28T16:48:28.954Z,28.51
2017-06-28T16:49:28.680Z,28.52
2017-06-28T16:50:28.983Z,28.42
2017-06-28T16:51:28.965Z,28.44
2017-06-28T16:52:28.953Z,28.48
2017-06-28T16:53:28.995Z,28.52
2017-06-28T16:54:28.999Z,28.6
2017-06-28T16:55:29.008Z,28.52
2017-06-28T16:56:29.030Z,28.56
2017-06-28T16:57:29.059Z,28.54
2017-06-28T16:58:28.726Z,28.47
2017-06-28T16:59:28.725Z,28.48
2017-06-28T17:00:28.807Z,28.39
2017-06-28T17:01:29.068Z,28.42
2017-06-28T17:02:28.839Z,28.44
2017-06-28T17:03:29.133Z,28.44
2017-06-28T17:04:54.740Z,28.38
2017-06-28T17:05:29.072Z,28.27
2017-06-28T17:06:28.774Z,28.25
2017-06-28T17:07:28.768Z,28.26
2017-06-28T17:08:29.063Z,28.32
2017-06-28T17:09:28.787Z,28.22
2017-06-28T17:10:29.151Z,28.27
2017-06-28T17:11:28.501Z,28.22
2017-06-28T17:12:29.124Z,28.26
2017-06-28T17:13:28.803Z,28.2
2017-06-28T17:14:29.137Z,28.22
2017-06-28T17:15:28.843Z,28.17
2017-06-28T17:16:29.160Z,28.29
2017-06-28T17:17:29.185Z,28.2
2017-06-28T17:18:29.163Z,28.29
2017-06-28T17:19:29.198Z,28.3
2017-06-28T17:20:28.865Z,28.19
2017-06-28T17:21:29.182Z,28.17
2017-06-28T17:22:29.245Z,28.1
2017-06-28T17:23:28.872Z,28.2
2017-06-28T17:24:28.916Z,28.23
2017-06-28T17:25:29.235Z,28.17
2017-06-28T17:26:29.282Z,28.2
2017-06-28T17:27:29.239Z,28.15
2017-06-28T17:28:29.263Z,28.2
2017-06-28T17:29:29.250Z,28.22
2017-06-28T17:30:28.939Z,28.08
2017-06-28T17:31:29.246Z,28.07
2017-06-28T17:32:29.297Z,28.04
2017-06-28T17:33:29.394Z,27.93
2017-06-28T17:34:29.268Z,27.9
2017-06-28T17:35:29.347Z,27.78
2017-06-28T17:36:29.303Z,27.87
2017-06-28T17:37:29.000Z,27.86
2017-06-28T17:38:29.266Z,27.71
2017-06-28T17:39:29.296Z,27.74
2017-06-28T17:40:28.978Z,27.7
2017-06-28T17:41:28.994Z,27.71
2017-06-28T17:42:29.341Z,27.59
2017-06-28T17:43:29.295Z,27.55
2017-06-28T17:44:29.356Z,27.51
2017-06-28T17:45:29.298Z,27.65
2017-06-28T17:46:29.002Z,27.63
2017-06-28T17:47:31.794Z,27.64
2017-06-28T17:48:29.323Z,27.55
2017-06-28T17:49:29.026Z,27.48
2017-06-28T17:50:29.333Z,27.65
2017-06-28T17:51:29.354Z,27.55
2017-06-28T17:52:29.040Z,27.59
2017-06-28T17:53:29.557Z,27.6
2017-06-28T17:54:29.199Z,27.67
2017-06-28T17:55:29.507Z,27.63
2017-06-28T17:56:29.502Z,27.63
2017-06-28T17:57:29.514Z,27.59
2017-06-28T17:58:29.466Z,27.58
2017-06-28T17:59:29.515Z,27.51
2017-06-28T18:00:28.937Z,27.55
2017-06-28T18:01:29.257Z,27.39
2017-06-28T18:02:29.900Z,27.25
2017-06-28T18:03:29.168Z,27.22
2017-06-28T18:04:29.512Z,27.12
2017-06-28T18:05:29.454Z,27.03
2017-06-28T18:06:29.118Z,26.89
2017-06-28T18:07:29.438Z,26.85
2017-06-28T18:08:29.258Z,26.74
2017-06-28T18:09:28.860Z,26.73
2017-06-28T18:10:29.195Z,26.7
2017-06-28T18:11:29.191Z,26.71
2017-06-28T18:12:29.618Z,26.66
2017-06-28T18:13:29.181Z,26.59
2017-06-28T18:14:29.561Z,26.62
2017-06-28T18:15:29.633Z,26.63
2017-06-28T18:16:29.245Z,26.55
2017-06-28T18:17:33.501Z,26.55
2017-06-28T18:18:29.549Z,26.45
2017-06-28T18:19:29.595Z,26.37
2017-06-28T18:20:29.622Z,26.38
2017-06-28T18:21:29.616Z,26.28
2017-06-28T18:22:29.330Z,26.25
2017-06-28T18:23:29.645Z,26.15
2017-06-28T18:24:29.596Z,26.09
2017-06-28T18:25:29.938Z,25.91
2017-06-28T18:26:29.290Z,25.91
2017-06-28T18:27:29.564Z,25.95
2017-06-28T18:28:29.720Z,25.91
2017-06-28T18:29:29.571Z,25.81
2017-06-28T18:30:28.980Z,25.83
2017-06-28T18:31:29.606Z,25.87
2017-06-28T18:32:29.588Z,25.81
2017-06-28T18:33:29.346Z,25.83
2017-06-28T18:34:29.014Z,25.84
2017-06-28T18:35:29.598Z,25.88
2017-06-28T18:36:29.329Z,25.84
2017-06-28T18:37:29.647Z,25.83
2017-06-28T18:38:29.325Z,25.72
2017-06-28T18:39:29.645Z,25.65
2017-06-28T18:40:29.360Z,25.63
2017-06-28T18:41:29.663Z,25.78
2017-06-28T18:42:29.642Z,25.66
2017-06-28T18:43:29.660Z,25.65
2017-06-28T18:44:29.354Z,25.65
2017-06-28T18:45:29.741Z,25.63
2017-06-28T18:46:29.649Z,25.65
2017-06-28T18:47:29.067Z,25.53
2017-06-28T18:48:30.594Z,25.59
2017-06-28T18:49:29.756Z,25.55
2017-06-28T18:50:29.463Z,25.5
2017-06-28T18:51:29.757Z,25.53
2017-06-28T18:52:29.728Z,25.55
2017-06-28T18:53:29.741Z,25.5
2017-06-28T18:54:29.433Z,25.53
2017-06-28T18:55:29.741Z,25.55
2017-06-28T18:56:29.437Z,25.47
2017-06-28T18:57:29.506Z,25.51
2017-06-28T18:58:29.825Z,25.38
2017-06-28T18:59:29.743Z,25.35
2017-06-28T19:00:29.755Z,25.43
2017-06-28T19:01:29.433Z,25.48
2017-06-28T19:02:29.802Z,25.41
2017-06-28T19:03:29.894Z,25.43
2017-06-28T19:04:29.793Z,25.41
2017-06-28T19:05:29.837Z,25.41
2017-06-28T19:06:29.854Z,25.32
2017-06-28T19:07:29.785Z,25.26
2017-06-28T19:08:29.769Z,25.31
2017-06-28T19:09:29.825Z,25.29
2017-06-28T19:10:29.859Z,25.38
2017-06-28T19:11:29.783Z,25.31
2017-06-28T19:12:29.805Z,25.28
2017-06-28T19:13:29.476Z,25.31
2017-06-28T19:14:29.515Z,25.29
2017-06-28T19:15:29.792Z,25.23
2017-06-28T19:16:29.517Z,25.26
2017-06-28T19:17:29.801Z,25.29
2017-06-28T19:18:30.941Z,25.22
2017-06-28T19:19:29.817Z,25.16
2017-06-28T19:20:29.864Z,25.17
2017-06-28T19:21:29.850Z,25.16
2017-06-28T19:22:29.831Z,25.18
2017-06-28T19:23:29.830Z,25.23
2017-06-28T19:24:29.841Z,25.21
2017-06-28T19:25:30.206Z,25.28
2017-06-28T19:26:29.873Z,25.22
2017-06-28T19:27:29.538Z,25.23
2017-06-28T19:28:29.874Z,25.25
2017-06-28T19:29:29.875Z,25.21
2017-06-28T19:30:29.919Z,25.21
2017-06-28T19:31:29.925Z,25.25
2017-06-28T19:32:29.562Z,25.21
2017-06-28T19:33:29.583Z,25.22
2017-06-28T19:34:29.916Z,25.17
2017-06-28T19:35:29.958Z,25.1
2017-06-28T19:36:29.621Z,25.07
2017-06-28T19:37:29.599Z,25.03
2017-06-28T19:38:31.260Z,24.89
2017-06-28T19:39:29.921Z,24.61
2017-06-28T19:40:29.964Z,24.53
2017-06-28T19:41:29.929Z,24.36
2017-06-28T19:42:29.647Z,24.11
2017-06-28T19:43:29.956Z,23.95
2017-06-28T19:44:29.619Z,23.96
2017-06-28T19:45:29.901Z,23.8
2017-06-28T19:46:29.966Z,23.62
2017-06-28T19:47:29.945Z,23.51
2017-06-28T19:48:29.973Z,23.36
2017-06-28T19:49:31.964Z,23.13
2017-06-28T19:50:29.986Z,22.73
2017-06-28T19:51:29.339Z,22.45
2017-06-28T19:52:29.652Z,22.1
2017-06-28T19:53:29.977Z,21.73
2017-06-28T19:54:30.001Z,21.51
2017-06-28T19:55:29.980Z,21.22
2017-06-28T19:56:29.987Z,20.96
2017-06-28T19:57:29.684Z,20.77
2017-06-28T19:58:30.001Z,20.5
2017-06-28T19:59:30.003Z,20.31
2017-06-28T20:00:30.004Z,20.14
2017-06-28T20:01:29.689Z,20.06
2017-06-28T20:02:30.010Z,19.91
2017-06-28T20:03:30.009Z,19.99
2017-06-28T20:04:30.064Z,19.99
2017-06-28T20:05:30.037Z,19.85
2017-06-28T20:06:29.724Z,19.94
2017-06-28T20:07:29.707Z,19.77
2017-06-28T20:08:30.061Z,19.84
2017-06-28T20:09:30.061Z,19.7
2017-06-28T20:10:30.031Z,19.67
2017-06-28T20:11:30.078Z,19.71
2017-06-28T20:12:30.132Z,19.67
2017-06-28T20:13:29.810Z,19.7
2017-06-28T20:14:30.046Z,19.71
2017-06-28T20:15:30.101Z,19.7
2017-06-28T20:16:30.050Z,19.69
2017-06-28T20:17:30.081Z,19.69
2017-06-28T20:18:30.060Z,19.81
2017-06-28T20:19:34.459Z,19.85
2017-06-28T20:20:30.115Z,19.86
2017-06-28T20:21:30.087Z,19.81
2017-06-28T20:22:30.114Z,19.84
2017-06-28T20:23:29.772Z,19.84
2017-06-28T20:24:29.757Z,19.91
2017-06-28T20:25:30.072Z,19.88
2017-06-28T20:26:29.779Z,19.84
2017-06-28T20:27:29.801Z,19.85
2017-06-28T20:28:30.095Z,19.88
2017-06-28T20:29:30.091Z,19.82
2017-06-28T20:30:30.131Z,19.85
2017-06-28T20:31:29.782Z,19.86
2017-06-28T20:32:30.103Z,19.99
2017-06-28T20:33:29.874Z,20
2017-06-28T20:34:30.117Z,20
2017-06-28T20:35:29.791Z,20.03
2017-06-28T20:36:30.110Z,20.19
2017-06-28T20:37:30.114Z,20.21
2017-06-28T20:38:30.132Z,20.19
2017-06-28T20:39:30.158Z,20.18
2017-06-28T20:40:30.127Z,20.24
2017-06-28T20:41:30.125Z,20.21
2017-06-28T20:42:29.896Z,20.22
2017-06-28T20:43:29.836Z,20.16
2017-06-28T20:44:29.889Z,20.21
2017-06-28T20:45:29.824Z,20.22
2017-06-28T20:46:29.824Z,20.13
2017-06-28T20:47:30.141Z,20.21
2017-06-28T20:48:30.145Z,20.14
2017-06-28T20:49:29.925Z,20.02
2017-06-28T20:50:30.153Z,19.99
2017-06-28T20:51:30.154Z,19.94
2017-06-28T20:52:29.847Z,19.96
2017-06-28T20:53:30.189Z,19.99
2017-06-28T20:54:30.161Z,19.94
2017-06-28T20:55:29.861Z,19.89
2017-06-28T20:56:30.170Z,19.91
